createdAt,value
2023-05-05T00:00:49.715Z,99713.00
2023-05-05T00:04:51.410Z,99715.78
2023-05-05T00:08:53.115Z,99716.09
2023-05-05T00:12:55.004Z,99706.69
2023-05-05T00:16:57.010Z,99711.47
2023-05-05T00:20:58.726Z,99710.97
2023-05-05T00:25:02.460Z,99713.78
2023-05-05T00:29:04.154Z,99716.63
2023-05-05T00:33:06.025Z,99716.63
2023-05-05T00:37:07.707Z,99719.44
2023-05-05T00:41:09.638Z,99705.59
2023-05-05T00:45:13.480Z,99705.59
2023-05-05T00:49:16.553Z,99711.69
2023-05-05T00:53:18.511Z,99700.88
2023-05-05T00:57:20.771Z,99710.84
2023-05-05T01:01:24.253Z,99708.91
2023-05-05T01:05:27.943Z,99710.00
2023-05-05T01:09:32.526Z,99706.38
2023-05-05T01:13:53.957Z,99695.56
2023-05-05T01:18:04.125Z,99708.03
2023-05-05T01:22:09.014Z,99696.94
2023-05-05T01:26:22.245Z,99683.06
2023-05-05T01:30:53.443Z,99680.59
2023-05-05T01:35:33.744Z,99671.75
2023-05-05T01:39:37.931Z,99661.22
2023-05-05T01:43:41.339Z,99657.31
2023-05-05T01:47:45.105Z,99641.81
2023-05-05T01:51:48.076Z,99664.56
2023-05-05T01:55:50.903Z,99675.66
2023-05-05T01:59:53.109Z,99682.31
2023-05-05T02:03:57.361Z,99685.06
2023-05-05T02:08:00.505Z,99705.84
2023-05-05T02:12:05.364Z,99715.28
2023-05-05T02:16:09.435Z,99716.38
2023-05-05T02:20:12.804Z,99715.81
2023-05-05T02:24:14.582Z,99714.44
2023-05-05T02:28:28.628Z,99717.19
2023-05-05T02:32:48.673Z,99720.53
2023-05-05T02:36:54.458Z,99721.94
2023-05-05T02:40:58.508Z,99720.81
2023-05-05T02:45:04.600Z,99733.84
2023-05-05T02:49:07.510Z,99727.75
2023-05-05T02:53:10.822Z,99735.22
2023-05-05T02:57:18.014Z,99736.88
2023-05-05T03:01:57.461Z,99726.63
2023-05-05T03:06:18.298Z,99737.19
2023-05-05T03:10:31.223Z,99743.81
2023-05-05T03:14:41.714Z,99729.97
2023-05-05T03:18:48.516Z,99735.78
2023-05-05T03:22:51.074Z,99734.97
2023-05-05T03:26:53.939Z,99735.50
2023-05-05T03:30:59.462Z,99739.13
2023-05-05T03:35:01.469Z,99741.03
2023-05-05T03:39:08.409Z,99742.13
2023-05-05T03:43:10.068Z,99743.19
2023-05-05T03:47:12.882Z,99734.59
2023-05-05T03:51:15.711Z,99734.84
2023-05-05T03:55:17.717Z,99747.53
2023-05-05T03:59:19.552Z,99739.22
2023-05-05T04:03:21.570Z,99735.59
2023-05-05T04:07:23.963Z,99732.81
2023-05-05T04:11:26.342Z,99737.25
2023-05-05T04:15:30.331Z,99751.38
2023-05-05T04:19:32.528Z,99750.00
2023-05-05T04:23:36.843Z,99753.06
2023-05-05T04:27:39.080Z,99755.31
2023-05-05T04:31:41.877Z,99756.75
2023-05-05T04:35:43.673Z,99757.03
2023-05-05T04:39:45.813Z,99759.00
2023-05-05T04:43:47.676Z,99766.19
2023-05-05T04:47:50.439Z,99775.34
2023-05-05T04:51:52.194Z,99765.41
2023-05-05T04:55:54.038Z,99774.84
2023-05-05T04:59:55.898Z,99778.19
2023-05-05T05:03:57.784Z,99774.06
2023-05-05T05:07:59.521Z,99781.53
2023-05-05T05:12:04.407Z,99792.34
2023-05-05T05:16:06.706Z,99796.53
2023-05-05T05:20:09.195Z,99788.22
2023-05-05T05:24:11.832Z,99795.16
2023-05-05T05:28:13.864Z,99789.06
2023-05-05T05:32:21.781Z,99795.44
2023-05-05T05:36:24.136Z,99800.72
2023-05-05T05:40:28.128Z,99804.59
2023-05-05T05:44:30.416Z,99806.53
2023-05-05T05:48:32.176Z,99820.41
2023-05-05T05:52:36.364Z,99822.31
2023-05-05T05:56:40.249Z,99818.72
2023-05-05T06:00:43.413Z,99825.34
2023-05-05T06:04:50.419Z,99823.03
2023-05-05T06:08:52.265Z,99826.84
2023-05-05T06:12:54.431Z,99832.81
2023-05-05T06:16:56.393Z,99829.28
2023-05-05T06:21:01.208Z,99834.91
2023-05-05T06:25:04.299Z,99829.50
2023-05-05T06:29:06.122Z,99840.84
2023-05-05T06:33:07.894Z,99857.13
2023-05-05T06:37:09.566Z,99847.97
2023-05-05T06:41:13.455Z,99847.16
2023-05-05T06:45:16.993Z,99838.56
2023-05-05T06:49:23.477Z,99836.19
2023-05-05T06:53:25.283Z,99838.84
2023-05-05T06:57:27.043Z,99838.09
2023-05-05T07:01:28.933Z,99839.69
2023-05-05T07:05:30.745Z,99845.97
2023-05-05T07:09:32.466Z,99840.81
2023-05-05T07:13:34.115Z,99842.88
2023-05-05T07:17:35.955Z,99837.44
2023-05-05T07:21:37.668Z,99846.28
2023-05-05T07:25:39.427Z,99854.03
2023-05-05T07:29:41.224Z,99860.81
2023-05-05T07:33:43.105Z,99864.47
2023-05-05T07:37:45.715Z,99856.19
2023-05-05T07:41:47.414Z,99853.84
2023-05-05T07:45:49.116Z,99848.81
2023-05-05T07:49:51.183Z,99852.94
2023-05-05T07:53:52.953Z,99855.22
2023-05-05T07:57:54.665Z,99847.94
2023-05-05T08:01:56.361Z,99858.50
2023-05-05T08:06:08.303Z,99862.91
2023-05-05T08:10:15.425Z,99864.88
2023-05-05T08:14:17.232Z,99866.03
2023-05-05T08:18:19.498Z,99861.53
2023-05-05T08:22:22.229Z,99865.28
2023-05-05T08:26:24.172Z,99861.41
2023-05-05T08:30:25.842Z,99860.97
2023-05-05T08:34:27.576Z,99857.91
2023-05-05T08:38:30.843Z,99857.47
2023-05-05T08:42:38.394Z,99847.28
2023-05-05T08:46:41.707Z,99845.34
2023-05-05T08:50:49.447Z,99853.09
2023-05-05T08:55:10.595Z,99851.28
2023-05-05T08:59:13.470Z,99845.19
2023-05-05T09:03:16.454Z,99841.03
2023-05-05T09:07:18.832Z,99840.72
2023-05-05T09:11:21.718Z,99845.28
2023-05-05T09:15:23.429Z,99841.28
2023-05-05T09:19:25.061Z,99846.72
2023-05-05T09:23:29.749Z,99839.06
2023-05-05T09:27:36.143Z,99837.69
2023-05-05T09:31:38.048Z,99837.22
2023-05-05T09:35:52.627Z,99833.19
2023-05-05T09:39:55.658Z,99825.44
2023-05-05T09:43:57.415Z,99817.84
2023-05-05T09:48:01.012Z,99821.31
2023-05-05T09:52:15.723Z,99810.00
2023-05-05T09:56:18.575Z,99807.97
2023-05-05T10:00:22.475Z,99804.91
2023-05-05T10:04:29.741Z,99810.56
2023-05-05T10:08:35.453Z,99807.16
2023-05-05T10:12:41.295Z,99801.66
2023-05-05T10:16:51.125Z,99799.06
2023-05-05T10:21:01.020Z,99792.94
2023-05-05T10:25:04.147Z,99786.03
2023-05-05T10:29:11.452Z,99782.75
2023-05-05T10:33:30.154Z,99796.56
2023-05-05T10:37:34.055Z,99789.13
2023-05-05T10:41:35.714Z,99789.94
2023-05-05T10:45:38.288Z,99783.97
2023-05-05T10:49:47.874Z,99780.50
2023-05-05T10:54:03.794Z,99780.13
2023-05-05T10:58:05.676Z,99782.88
2023-05-05T11:02:27.151Z,99774.13
2023-05-05T11:06:29.660Z,99772.56
2023-05-05T11:10:44.546Z,99770.56
2023-05-05T11:14:46.270Z,99763.31
2023-05-05T11:18:47.960Z,99765.53
2023-05-05T11:23:06.471Z,99753.91
2023-05-05T11:27:08.291Z,99748.81
2023-05-05T11:31:16.662Z,99733.91
2023-05-05T11:35:18.953Z,99729.28
2023-05-05T11:39:25.593Z,99718.38
2023-05-05T11:43:28.122Z,99731.59
2023-05-05T11:47:31.016Z,99717.88
2023-05-05T11:51:33.540Z,99711.28
2023-05-05T11:55:35.329Z,99710.97
2023-05-05T12:00:00.651Z,99700.84
2023-05-05T12:04:02.652Z,99701.22
2023-05-05T12:08:04.732Z,99691.81
2023-05-05T12:12:06.706Z,99701.47
2023-05-05T12:16:13.004Z,99695.13
2023-05-05T12:20:14.872Z,99705.16
2023-05-05T12:24:18.179Z,99702.75
2023-05-05T12:28:19.818Z,99692.75
2023-05-05T12:32:26.477Z,99681.50
2023-05-05T12:36:30.394Z,99691.44
2023-05-05T12:40:46.941Z,99693.56
2023-05-05T12:44:50.310Z,99685.19
2023-05-05T12:49:04.958Z,99673.91
2023-05-05T12:53:06.735Z,99685.59
2023-05-05T12:57:11.767Z,99675.88
2023-05-05T13:01:13.479Z,99659.84
2023-05-05T13:05:15.227Z,99660.34
2023-05-05T13:09:24.410Z,99658.53
2023-05-05T13:13:26.126Z,99637.16
2023-05-05T13:17:29.559Z,99634.19
2023-05-05T13:21:32.085Z,99633.91
2023-05-05T13:25:33.756Z,99624.88
2023-05-05T13:29:35.587Z,99623.09
2023-05-05T13:33:37.229Z,99613.59
2023-05-05T13:37:40.504Z,99601.16
2023-05-05T13:41:44.940Z,99601.97
2023-05-05T13:45:46.711Z,99597.25
2023-05-05T13:49:49.051Z,99590.75
2023-05-05T13:53:50.994Z,99591.81
2023-05-05T13:57:52.875Z,99597.28
2023-05-05T14:01:54.559Z,99596.94
2023-05-05T14:05:56.191Z,99586.13
2023-05-05T14:09:57.893Z,99588.53
2023-05-05T14:13:59.511Z,99595.38
2023-05-05T14:18:01.231Z,99583.19
2023-05-05T14:22:02.991Z,99592.06
2023-05-05T14:26:04.840Z,99583.22
2023-05-05T14:30:06.727Z,99590.50
2023-05-05T14:34:08.416Z,99586.13
2023-05-05T14:38:10.144Z,99578.47
2023-05-05T14:42:11.835Z,99578.41
2023-05-05T14:46:13.847Z,99572.47
2023-05-05T14:50:15.530Z,99571.72
2023-05-05T14:54:27.465Z,99575.34
2023-05-05T14:58:29.909Z,99585.88
2023-05-05T15:02:31.611Z,99597.94
2023-05-05T15:06:33.297Z,99596.72
2023-05-05T15:10:35.056Z,99597.28
2023-05-05T15:14:36.876Z,99593.00
2023-05-05T15:18:38.612Z,99601.81
2023-05-05T15:22:43.512Z,99590.91
2023-05-05T15:26:45.177Z,99593.41
2023-05-05T15:30:46.795Z,99603.09
2023-05-05T15:57:19.124Z,99625.00
2023-05-05T16:01:24.243Z,99632.97
2023-05-05T16:05:25.984Z,99649.25
2023-05-05T16:09:27.725Z,99653.50
2023-05-05T16:13:29.506Z,99666.16
2023-05-05T16:17:31.272Z,99658.00
2023-05-05T16:21:33.527Z,99671.47
2023-05-05T16:25:35.292Z,99680.78
2023-05-05T16:29:37.091Z,99696.19
2023-05-05T16:33:41.140Z,99704.09
2023-05-05T16:37:45.495Z,99706.28
2023-05-05T16:41:47.167Z,99714.78
2023-05-05T16:45:49.095Z,99710.38
2023-05-05T16:49:52.650Z,99706.59
2023-05-05T16:53:54.507Z,99691.53
2023-05-05T16:57:56.248Z,99688.09
2023-05-05T17:01:58.142Z,99678.19
2023-05-05T17:06:00.367Z,99672.81
2023-05-05T17:10:02.324Z,99665.56
2023-05-05T17:14:04.053Z,99673.84
2023-05-05T17:18:06.988Z,99681.19
2023-05-05T17:22:11.207Z,99690.81
2023-05-05T17:26:13.470Z,99688.84
2023-05-05T17:30:17.038Z,99697.41
2023-05-05T17:34:18.753Z,99695.78
2023-05-05T17:38:21.666Z,99695.47
2023-05-05T17:42:23.448Z,99698.03
2023-05-05T17:46:26.513Z,99705.28
2023-05-05T17:50:29.990Z,99705.91
2023-05-05T17:54:34.143Z,99707.97
2023-05-05T17:58:38.185Z,99701.66
2023-05-05T18:02:41.298Z,99703.09
2023-05-05T18:06:49.915Z,99705.09
2023-05-05T18:11:04.693Z,99712.44
2023-05-05T18:15:07.830Z,99711.63
2023-05-05T18:19:14.085Z,99702.09
2023-05-05T18:23:20.802Z,99712.44
2023-05-05T18:27:28.346Z,99720.28
2023-05-05T18:31:31.321Z,99720.97
2023-05-05T18:35:35.373Z,99730.06
2023-05-05T18:39:38.243Z,99734.03
2023-05-05T18:43:52.121Z,99725.84
2023-05-05T18:48:11.824Z,99731.91
2023-05-05T18:52:16.820Z,99734.94
2023-05-05T18:56:19.644Z,99741.47
2023-05-05T19:00:21.500Z,99753.34
2023-05-05T19:04:31.688Z,99746.19
2023-05-05T19:08:39.022Z,99752.41
2023-05-05T19:12:40.891Z,99754.72
2023-05-05T19:16:44.345Z,99759.53
2023-05-05T19:25:11.166Z,99757.88
2023-05-05T19:29:13.112Z,99756.81
2023-05-05T19:33:17.903Z,99769.38
2023-05-05T19:37:19.780Z,99771.63
2023-05-05T19:41:21.656Z,99776.66
2023-05-05T19:45:26.544Z,99773.66
2023-05-05T19:49:28.521Z,99767.84
2023-05-05T19:53:30.421Z,99769.03
2023-05-05T19:57:32.102Z,99767.47
2023-05-05T20:01:37.056Z,99775.06
2023-05-05T20:05:38.908Z,99769.47
2023-05-05T20:09:42.122Z,99776.47
2023-05-05T20:13:44.113Z,99782.38
2023-05-05T20:17:47.154Z,99779.41
2023-05-05T20:21:51.037Z,99771.41
2023-05-05T20:25:53.497Z,99772.91
2023-05-05T20:29:55.354Z,99777.47
2023-05-05T20:33:57.165Z,99780.88
2023-05-05T20:37:59.866Z,99792.69
2023-05-05T20:42:02.830Z,99784.63
2023-05-05T20:46:04.626Z,99780.78
2023-05-05T20:50:07.864Z,99791.66
2023-05-05T20:54:10.353Z,99791.09
2023-05-05T20:58:12.090Z,99793.63
2023-05-05T21:02:13.844Z,99796.69
2023-05-05T21:06:16.562Z,99800.31
2023-05-05T21:10:18.229Z,99798.38
2023-05-05T21:14:20.084Z,99796.41
2023-05-05T21:18:21.986Z,99795.59
2023-05-05T21:22:26.594Z,99798.38
2023-05-05T21:26:28.451Z,99796.16
2023-05-05T21:30:30.357Z,99800.63
2023-05-05T21:34:32.164Z,99803.44
2023-05-05T21:38:33.945Z,99790.97
2023-05-05T21:42:35.705Z,99806.88
2023-05-05T21:46:37.470Z,99791.66
2023-05-05T21:50:39.641Z,99790.59
2023-05-05T21:54:41.373Z,99796.16
2023-05-05T21:58:43.114Z,99802.28
2023-05-05T22:02:45.169Z,99806.75
2023-05-05T22:06:48.575Z,99804.56
2023-05-05T22:10:52.352Z,99804.56
2023-05-05T22:14:54.049Z,99802.09
2023-05-05T22:18:55.714Z,99795.41
2023-05-05T22:22:58.254Z,99804.28
2023-05-05T22:27:00.030Z,99810.66
2023-05-05T22:31:02.071Z,99809.84
2023-05-05T22:35:04.834Z,99807.91
2023-05-05T22:39:06.657Z,99808.75
2023-05-05T22:43:09.577Z,99808.75
2023-05-05T22:47:11.656Z,99807.91
2023-05-05T22:51:13.997Z,99807.91
2023-05-05T22:55:16.221Z,99815.69
2023-05-05T22:59:17.865Z,99817.91
2023-05-05T23:03:19.599Z,99819.31
2023-05-05T23:07:21.239Z,99828.19
2023-05-05T23:11:23.028Z,99824.28
2023-05-05T23:15:25.152Z,99821.50
2023-05-05T23:19:29.099Z,99824.28
2023-05-05T23:23:31.209Z,99834.00
2023-05-05T23:27:32.868Z,99833.72
2023-05-05T23:31:34.488Z,99824.53
2023-05-05T23:35:39.600Z,99822.63
2023-05-05T23:39:41.778Z,99820.13
2023-05-05T23:43:43.668Z,99814.03
2023-05-05T23:47:45.405Z,99812.03
2023-05-05T23:51:47.152Z,99812.03
2023-05-05T23:55:48.781Z,99808.69
2023-05-05T23:59:50.527Z,99817.28
